McLeod, MT (59052)

11:54 PM MDT on August 31, 2016 (GMT -0600)
Gish Mine Area, FS Trail 117 | | Change Station

Elev 5597 ft 45.48 °N, 110.20 °W | Updated 11 minutes ago

Clear
Clear
65.5 °F
Feels Like 65.5 °F
N
2.2
Wind Variable Wind from SSE

Today
High -- | Low -- °F
--% Chance of Precip.
Yesterday
High -- | Low -- °F
Precip. -- in
Pressure 29.81 in
Visibility 10.0 miles
Clouds Clear
Dew Point 33 °F
Humidity 30%
Rainfall 0.00 in
Snow Depth Not available.
6:42 AM 7:59 PM
Waning Crescent, 0% visible
METAR KLVM 010453Z AUTO 31006KT 10SM CLR 22/03 A2997 RMK AO2 SLP094 T02220028
Pressure 29.81 in
Visibility 10.0 miles
Clouds Clear
Dew Point 33 °F
Humidity 30%
Rainfall 0.00 in
Snow Depth Not available.
6:42 AM 7:59 PM
Waning Crescent, 0% visible
METAR KLVM 010453Z AUTO 31006KT 10SM CLR 22/03 A2997 RMK AO2 SLP094 T02220028

10-Day Weather Forecast

Almanac

Astronomy

Aug. 31, 2016 Rise Set
Actual Time
Civil Twilight
Nautical Twilight
Astronomical Twilight
Moon
Length of Visible Light
Length of Day
Tomorrow will be .
, % of the Moon is Illuminated

Today's Extremes

State Highs State Lows

Community

WunderPhotos

Upload Photos

1,936,313 photos uploaded!

WunderBlog® & News

Nearby

Air Quality

  Air Quality AQ Index Pollutant
Not available.

Snow Depth

Station Depth Elevation

Earthquake Activity

City Distance Mag. Time & Date
Minimum magnitude displayed is 2.5.

Coastal Water Temperatures

Place Temperature

Stations

Nearby Weather Stations

Station Location Temp. Windchill Dew Point Humidity Wind Precip. Elev Updated Type
                   

Watches & Warnings

There are currently no watches in effect.